La rose des vents
Donnes mto: Semaine 24/01/22 - 30/01/22 (S 4)
Date Horaire Temp. E. Hum. E. P.atmo. Pluie Vent 1mn Direction Ensoleilleme Ev.Tr. Solaire P. de rose Temp au vent Rafales
24/01/2022 00:00 5,8 C 85 % 1028,8 hPa 0,0 l/m 0,6 km/h (0 Bft) E-SE 0,00 h 0,000 mm 0 W/m 3,4 C 5,8 C 1,9 km/h (1 Bft)
24/01/2022 01:00 5,5 C 83 % 1028,6 hPa 0,0 l/m 0,4 km/h (0 Bft) E-SE 0,00 h 0,000 mm 0 W/m 2,9 C 5,5 C 1,5 km/h (1 Bft)
24/01/2022 02:00 5,2 C 83 % 1028,5 hPa 0,0 l/m 0,1 km/h (0 Bft) E-SE 0,00 h 0,000 mm 0 W/m 2,5 C 5,2 C 1,3 km/h (1 Bft)
24/01/2022 03:00 5,0 C 82 % 1028,5 hPa 0,0 l/m 0,4 km/h (0 Bft) E-SE 0,00 h 0,000 mm 0 W/m 2,3 C 5,0 C 1,5 km/h (1 Bft)
24/01/2022 04:00 5,2 C 82 % 1028,7 hPa 0,0 l/m 0,2 km/h (0 Bft) E-SE 0,00 h 0,000 mm 0 W/m 2,5 C 5,2 C 1,1 km/h (1 Bft)
24/01/2022 05:00 5,3 C 83 % 1028,7 hPa 0,0 l/m 0,2 km/h (0 Bft) E-SE 0,00 h 0,000 mm 0 W/m 2,7 C 5,3 C 1,7 km/h (1 Bft)
24/01/2022 06:00 5,5 C 82 % 1028,8 hPa 0,0 l/m 0,2 km/h (0 Bft) E 0,00 h 0,000 mm 0 W/m 2,7 C 5,5 C 1,4 km/h (1 Bft)
24/01/2022 07:00 5,3 C 81 % 1029,1 hPa 0,0 l/m 0,6 km/h (0 Bft) E-SE 0,00 h 0,000 mm 5 W/m 2,3 C 5,3 C 2,1 km/h (1 Bft)
24/01/2022 08:00 5,4 C 81 % 1029,1 hPa 0,0 l/m 0,3 km/h (0 Bft) E-SE 0,85 h 0,000 mm 56 W/m 2,3 C 5,4 C 1,2 km/h (1 Bft)
24/01/2022 09:00 7,8 C 75 % 1028,9 hPa 0,0 l/m 0,0 km/h (0 Bft) N 1,00 h 0,025 mm 176 W/m 3,6 C 7,8 C 0,0 km/h (0 Bft)
24/01/2022 10:00 11,7 C 68 % 1028,8 hPa 0,0 l/m 0,0 km/h (0 Bft) N 1,00 h 0,076 mm 300 W/m 6,0 C 11,7 C 0,4 km/h (0 Bft)
24/01/2022 11:00 13,8 C 63 % 1028,9 hPa 0,0 l/m 0,5 km/h (0 Bft) N-NE 1,00 h 0,152 mm 382 W/m 6,9 C 13,8 C 2,1 km/h (1 Bft)
24/01/2022 12:00 15,0 C 61 % 1028,7 hPa 0,0 l/m 0,6 km/h (0 Bft) N-NE 1,00 h 0,203 mm 415 W/m 7,6 C 15,0 C 2,7 km/h (1 Bft)
24/01/2022 13:00 15,1 C 60 % 1028,3 hPa 0,0 l/m 1,3 km/h (1 Bft) N-NE 1,00 h 0,229 mm 402 W/m 7,5 C 15,1 C 3,7 km/h (1 Bft)
24/01/2022 14:00 15,0 C 62 % 1028,1 hPa 0,0 l/m 2,2 km/h (1 Bft) NE 1,00 h 0,229 mm 337 W/m 7,8 C 15,0 C 5,7 km/h (1 Bft)
24/01/2022 15:00 14,4 C 64 % 1028,2 hPa 0,0 l/m 0,4 km/h (0 Bft) NE 1,00 h 0,178 mm 230 W/m 7,6 C 14,4 C 1,6 km/h (1 Bft)
24/01/2022 16:00 13,5 C 66 % 1028,4 hPa 0,0 l/m 0,0 km/h (0 Bft) N 0,98 h 0,127 mm 104 W/m 7,3 C 13,5 C 0,0 km/h (0 Bft)
24/01/2022 17:00 11,2 C 72 % 1028,9 hPa 0,0 l/m 0,0 km/h (0 Bft) N 0,03 h 0,051 mm 15 W/m 6,3 C 11,2 C 0,0 km/h (0 Bft)
24/01/2022 18:00 8,8 C 79 % 1030,0 hPa 0,0 l/m 0,0 km/h (0 Bft) N 0,00 h 0,000 mm 0 W/m 5,3 C 8,8 C 0,0 km/h (0 Bft)
24/01/2022 19:00 7,4 C 83 % 1030,7 hPa 0,0 l/m 0,0 km/h (0 Bft) N 0,00 h 0,025 mm 0 W/m 4,7 C 7,4 C 0,0 km/h (0 Bft)
24/01/2022 20:00 6,7 C 86 % 1031,0 hPa 0,0 l/m 0,0 km/h (0 Bft) N 0,00 h 0,000 mm 0 W/m 4,6 C 6,7 C 0,0 km/h (0 Bft)
24/01/2022 21:00 6,6 C 87 % 1031,3 hPa 0,0 l/m 0,0 km/h (0 Bft) N 0,00 h 0,000 mm 0 W/m 4,6 C 6,6 C 0,3 km/h (0 Bft)
24/01/2022 22:00 7,1 C 85 % 1031,7 hPa 0,0 l/m 0,1 km/h (0 Bft) NE 0,00 h 0,000 mm 0 W/m 4,8 C 7,1 C 0,9 km/h (0 Bft)
24/01/2022 23:00 7,7 C 84 % 1031,7 hPa 0,0 l/m 1,1 km/h (1 Bft) NE 0,00 h 0,000 mm 0 W/m 5,2 C 7,7 C 3,4 km/h (1 Bft)
25/01/2022 00:00 8,1 C 81 % 1031,9 hPa 0,0 l/m 0,4 km/h (0 Bft) NE 0,00 h 0,000 mm 0 W/m 5,1 C 8,1 C 2,0 km/h (1 Bft)
25/01/2022 01:00 7,8 C 81 % 1031,7 hPa 0,0 l/m 0,0 km/h (0 Bft) N 0,00 h 0,025 mm 0 W/m 4,8 C 7,8 C 0,2 km/h (0 Bft)
25/01/2022 02:00 7,7 C 82 % 1031,8 hPa 0,0 l/m 0,0 km/h (0 Bft) NE 0,00 h 0,025 mm 0 W/m 4,8 C 7,7 C 0,5 km/h (0 Bft)
25/01/2022 03:00 8,1 C 80 % 1031,9 hPa 0,0 l/m 0,1 km/h (0 Bft) NE 0,00 h 0,000 mm 0 W/m 4,9 C 8,1 C 0,2 km/h (0 Bft)
25/01/2022 04:00 8,4 C 79 % 1031,6 hPa 0,0 l/m 0,0 km/h (0 Bft) N 0,00 h 0,025 mm 0 W/m 5,0 C 8,4 C 0,0 km/h (0 Bft)
25/01/2022 05:00 8,4 C 79 % 1031,6 hPa 0,0 l/m 0,0 km/h (0 Bft) N 0,00 h 0,025 mm 0 W/m 4,9 C 8,4 C 0,0 km/h (0 Bft)
25/01/2022 06:00 8,1 C 80 % 1031,7 hPa 0,0 l/m 0,0 km/h (0 Bft) N 0,00 h 0,025 mm 0 W/m 4,9 C 8,1 C 0,0 km/h (0 Bft)
25/01/2022 07:00 7,9 C 81 % 1031,9 hPa 0,0 l/m 0,0 km/h (0 Bft) N 0,00 h 0,025 mm 0 W/m 4,8 C 7,9 C 0,0 km/h (0 Bft)
25/01/2022 08:00 7,7 C 82 % 1032,2 hPa 0,0 l/m 0,0 km/h (0 Bft) N 0,00 h 0,000 mm 8 W/m 4,8 C 7,7 C 0,0 km/h (0 Bft)
25/01/2022 09:00 7,9 C 83 % 1032,3 hPa 0,0 l/m 0,0 km/h (0 Bft) N 0,00 h 0,000 mm 52 W/m 5,2 C 7,9 C 0,0 km/h (0 Bft)
25/01/2022 10:00 9,0 C 84 % 1032,2 hPa 0,0 l/m 0,0 km/h (0 Bft) N 0,03 h 0,025 mm 140 W/m 6,4 C 9,0 C 0,0 km/h (0 Bft)
25/01/2022 11:00 11,7 C 76 % 1032,0 hPa 0,0 l/m 0,6 km/h (0 Bft) E-NE 0,82 h 0,076 mm 362 W/m 7,6 C 11,7 C 1,8 km/h (1 Bft)
25/01/2022 12:00 13,3 C 71 % 1031,4 hPa 0,0 l/m 6,1 km/h (2 Bft) S-SE 1,00 h 0,178 mm 502 W/m 8,1 C 13,3 C 10,9 km/h (2 Bft)
25/01/2022 13:00 13,8 C 70 % 1030,5 hPa 0,0 l/m 4,8 km/h (1 Bft) S 1,00 h 0,279 mm 454 W/m 8,4 C 13,8 C 9,1 km/h (2 Bft)
25/01/2022 14:00 13,6 C 71 % 1029,8 hPa 0,0 l/m 5,1 km/h (1 Bft) S-SE 0,83 h 0,254 mm 372 W/m 8,5 C 13,6 C 9,3 km/h (2 Bft)
25/01/2022 15:00 12,2 C 75 % 1029,6 hPa 0,0 l/m 2,3 km/h (1 Bft) S-SE 0,00 h 0,203 mm 107 W/m 7,9 C 12,2 C 4,8 km/h (1 Bft)
25/01/2022 16:00 12,3 C 74 % 1029,6 hPa 0,0 l/m 0,4 km/h (0 Bft) SO 0,60 h 0,051 mm 99 W/m 7,9 C 12,3 C 1,4 km/h (1 Bft)
25/01/2022 17:00 10,8 C 79 % 1029,8 hPa 0,0 l/m 0,0 km/h (0 Bft) N 0,03 h 0,051 mm 15 W/m 7,3 C 10,8 C 0,2 km/h (0 Bft)
25/01/2022 18:00 9,4 C 83 % 1029,9 hPa 0,0 l/m 0,0 km/h (0 Bft) N 0,00 h 0,000 mm 0 W/m 6,7 C 9,4 C 0,0 km/h (0 Bft)
25/01/2022 19:00 8,4 C 87 % 1030,2 hPa 0,0 l/m 0,0 km/h (0 Bft) N 0,00 h 0,000 mm 0 W/m 6,3 C 8,4 C 0,1 km/h (0 Bft)
25/01/2022 20:00 7,6 C 88 % 1030,2 hPa 0,0 l/m 0,4 km/h (0 Bft) O-SO 0,00 h 0,000 mm 0 W/m 5,7 C 7,6 C 1,9 km/h (1 Bft)
25/01/2022 21:00 7,3 C 87 % 1030,1 hPa 0,0 l/m 0,3 km/h (0 Bft) O-SO 0,00 h 0,000 mm 0 W/m 5,3 C 7,3 C 1,9 km/h (1 Bft)
25/01/2022 22:00 7,1 C 87 % 1029,7 hPa 0,0 l/m 0,2 km/h (0 Bft) O-SO 0,00 h 0,000 mm 0 W/m 5,1 C 7,1 C 1,0 km/h (0 Bft)
25/01/2022 23:00 6,6 C 86 % 1029,6 hPa 0,0 l/m 0,0 km/h (0 Bft) N 0,00 h 0,000 mm 0 W/m 4,5 C 6,6 C 0,2 km/h (0 Bft)
26/01/2022 00:00 6,0 C 87 % 1029,5 hPa 0,0 l/m 0,1 km/h (0 Bft) O-SO 0,00 h 0,000 mm 0 W/m 4,0 C 6,0 C 0,9 km/h (0 Bft)
26/01/2022 01:00 5,8 C 86 % 1029,4 hPa 0,0 l/m 1,1 km/h (1 Bft) O-SO 0,00 h 0,000 mm 0 W/m 3,6 C 5,8 C 3,4 km/h (1 Bft)
26/01/2022 02:00 5,7 C 84 % 1029,1 hPa 0,0 l/m 0,7 km/h (0 Bft) O-SO 0,00 h 0,000 mm 0 W/m 3,2 C 5,7 C 2,5 km/h (1 Bft)
26/01/2022 03:00 5,4 C 82 % 1028,7 hPa 0,0 l/m 0,9 km/h (0 Bft) O-SO 0,00 h 0,000 mm 0 W/m 2,5 C 5,4 C 2,9 km/h (1 Bft)
26/01/2022 04:00 4,8 C 81 % 1028,2 hPa 0,0 l/m 0,0 km/h (0 Bft) N 0,00 h 0,000 mm 0 W/m 1,8 C 4,8 C 0,2 km/h (0 Bft)
26/01/2022 05:00 4,0 C 83 % 1028,0 hPa 0,0 l/m 0,1 km/h (0 Bft) O-SO 0,00 h 0,000 mm 0 W/m 1,4 C 4,0 C 0,8 km/h (0 Bft)
26/01/2022 06:00 4,5 C 83 % 1027,8 hPa 0,0 l/m 0,1 km/h (0 Bft) O-SO 0,00 h 0,000 mm 0 W/m 1,8 C 4,5 C 1,0 km/h (0 Bft)
26/01/2022 07:00 4,7 C 84 % 1027,9 hPa 0,0 l/m 0,1 km/h (0 Bft) O-SO 0,00 h 0,000 mm 6 W/m 2,2 C 4,7 C 0,6 km/h (0 Bft)
26/01/2022 08:00 5,0 C 84 % 1027,9 hPa 0,0 l/m 0,0 km/h (0 Bft) N 0,92 h 0,000 mm 61 W/m 2,5 C 5,0 C 0,1 km/h (0 Bft)
26/01/2022 09:00 7,9 C 80 % 1028,1 hPa 0,0 l/m 0,0 km/h (0 Bft) N 1,00 h 0,025 mm 184 W/m 4,7 C 7,9 C 0,0 km/h (0 Bft)
26/01/2022 10:00 11,4 C 71 % 1028,0 hPa 0,0 l/m 0,0 km/h (0 Bft) N 1,00 h 0,076 mm 307 W/m 6,3 C 11,4 C 0,0 km/h (0 Bft)
26/01/2022 11:00 13,1 C 67 % 1028,1 hPa 0,0 l/m 0,1 km/h (0 Bft) N-NO 1,00 h 0,152 mm 390 W/m 7,0 C 13,1 C 0,5 km/h (0 Bft)
26/01/2022 12:00 14,2 C 61 % 1027,6 hPa 0,0 l/m 0,7 km/h (0 Bft) E 1,00 h 0,203 mm 427 W/m 6,7 C 14,2 C 2,6 km/h (1 Bft)
26/01/2022 13:00 14,6 C 60 % 1027,0 hPa 0,0 l/m 0,5 km/h (0 Bft) E-SE 1,00 h 0,229 mm 411 W/m 6,9 C 14,6 C 2,6 km/h (1 Bft)
26/01/2022 14:00 14,8 C 59 % 1026,5 hPa 0,0 l/m 0,1 km/h (0 Bft) S 1,00 h 0,229 mm 348 W/m 6,9 C 14,8 C 0,8 km/h (0 Bft)
26/01/2022 15:00 14,1 C 62 % 1026,3 hPa 0,0 l/m 0,0 km/h (0 Bft) S 1,00 h 0,178 mm 240 W/m 7,0 C 14,1 C 0,4 km/h (0 Bft)
26/01/2022 16:00 13,0 C 68 % 1026,3 hPa 0,0 l/m 0,0 km/h (0 Bft) N 1,00 h 0,127 mm 112 W/m 7,2 C 13,0 C 0,0 km/h (0 Bft)
26/01/2022 17:00 10,9 C 74 % 1026,4 hPa 0,0 l/m 0,0 km/h (0 Bft) N 0,08 h 0,051 mm 17 W/m 6,5 C 10,9 C 0,0 km/h (0 Bft)
26/01/2022 18:00 8,9 C 80 % 1026,6 hPa 0,0 l/m 0,0 km/h (0 Bft) N 0,00 h 0,000 mm 0 W/m 5,6 C 8,9 C 0,0 km/h (0 Bft)
26/01/2022 19:00 7,5 C 83 % 1026,9 hPa 0,0 l/m 0,0 km/h (0 Bft) N 0,00 h 0,000 mm 0 W/m 4,8 C 7,5 C 0,0 km/h (0 Bft)
26/01/2022 20:00 6,8 C 85 % 1026,9 hPa 0,0 l/m 0,0 km/h (0 Bft) N 0,00 h 0,000 mm 0 W/m 4,4 C 6,8 C 0,0 km/h (0 Bft)
26/01/2022 21:00 6,4 C 84 % 1026,8 hPa 0,0 l/m 0,0 km/h (0 Bft) N 0,00 h 0,000 mm 0 W/m 3,9 C 6,4 C 0,2 km/h (0 Bft)
26/01/2022 22:00 6,1 C 85 % 1026,9 hPa 0,0 l/m 0,1 km/h (0 Bft) S 0,00 h 0,000 mm 0 W/m 3,7 C 6,1 C 0,7 km/h (0 Bft)
26/01/2022 23:00 6,0 C 86 % 1026,9 hPa 0,0 l/m 0,7 km/h (0 Bft) S 0,00 h 0,000 mm 0 W/m 3,8 C 6,0 C 2,5 km/h (1 Bft)
27/01/2022 00:00 6,1 C 86 % 1027,0 hPa 0,0 l/m 0,1 km/h (0 Bft) N-NO 0,00 h 0,000 mm 0 W/m 3,9 C 6,1 C 1,0 km/h (0 Bft)
27/01/2022 01:00 5,9 C 87 % 1026,8 hPa 0,0 l/m 0,6 km/h (0 Bft) N-NO 0,00 h 0,000 mm 0 W/m 3,8 C 5,9 C 2,5 km/h (1 Bft)
27/01/2022 02:00 5,9 C 86 % 1026,4 hPa 0,0 l/m 0,3 km/h (0 Bft) N-NO 0,00 h 0,000 mm 0 W/m 3,8 C 5,9 C 1,6 km/h (1 Bft)
27/01/2022 03:00 5,7 C 86 % 1026,3 hPa 0,0 l/m 0,2 km/h (0 Bft) N-NO 0,00 h 0,000 mm 0 W/m 3,6 C 5,7 C 1,3 km/h (1 Bft)
27/01/2022 04:00 5,6 C 86 % 1026,2 hPa 0,0 l/m 0,2 km/h (0 Bft) N-NO 0,00 h 0,000 mm 0 W/m 3,5 C 5,6 C 1,0 km/h (0 Bft)
27/01/2022 05:00 5,8 C 87 % 1026,2 hPa 0,0 l/m 0,3 km/h (0 Bft) N-NO 0,00 h 0,000 mm 0 W/m 3,7 C 5,8 C 1,4 km/h (1 Bft)
27/01/2022 06:00 5,8 C 86 % 1026,2 hPa 0,0 l/m 0,3 km/h (0 Bft) N-NO 0,00 h 0,000 mm 0 W/m 3,5 C 5,8 C 1,5 km/h (1 Bft)
27/01/2022 07:00 5,9 C 85 % 1026,7 hPa 0,0 l/m 0,8 km/h (0 Bft) N-NO 0,00 h 0,000 mm 5 W/m 3,6 C 5,9 C 2,4 km/h (1 Bft)
27/01/2022 08:00 6,3 C 84 % 1027,1 hPa 0,0 l/m 1,2 km/h (1 Bft) N-NO 0,02 h 0,000 mm 37 W/m 3,8 C 6,3 C 3,4 km/h (1 Bft)
27/01/2022 09:00 7,4 C 83 % 1027,4 hPa 0,0 l/m 0,0 km/h (0 Bft) NO 0,22 h 0,025 mm 129 W/m 4,6 C 7,4 C 0,5 km/h (0 Bft)
27/01/2022 10:00 9,9 C 79 % 1027,8 hPa 0,0 l/m 0,0 km/h (0 Bft) N 0,48 h 0,051 mm 227 W/m 6,5 C 9,9 C 0,0 km/h (0 Bft)
27/01/2022 11:00 12,8 C 72 % 1027,8 hPa 0,0 l/m 0,1 km/h (0 Bft) S-SE 1,00 h 0,102 mm 363 W/m 7,8 C 12,8 C 0,4 km/h (0 Bft)
27/01/2022 12:00 13,8 C 67 % 1027,4 hPa 0,0 l/m 0,8 km/h (0 Bft) S-SE 1,00 h 0,178 mm 426 W/m 7,9 C 13,8 C 2,6 km/h (1 Bft)
27/01/2022 13:00 13,7 C 67 % 1026,8 hPa 0,0 l/m 1,9 km/h (1 Bft) SE 0,93 h 0,229 mm 360 W/m 7,8 C 13,7 C 5,0 km/h (1 Bft)
27/01/2022 14:00 14,5 C 65 % 1026,2 hPa 0,0 l/m 0,2 km/h (0 Bft) SE 1,00 h 0,203 mm 388 W/m 8,1 C 14,5 C 0,7 km/h (0 Bft)
27/01/2022 15:00 14,7 C 67 % 1025,8 hPa 0,0 l/m 1,9 km/h (1 Bft) E 1,00 h 0,203 mm 281 W/m 8,7 C 14,7 C 5,6 km/h (1 Bft)
27/01/2022 16:00 12,2 C 75 % 1025,9 hPa 0,0 l/m 0,7 km/h (0 Bft) E 0,17 h 0,152 mm 62 W/m 7,8 C 12,2 C 1,9 km/h (1 Bft)
27/01/2022 17:00 10,7 C 80 % 1025,8 hPa 0,0 l/m 0,1 km/h (0 Bft) S 0,00 h 0,025 mm 9 W/m 7,5 C 10,7 C 0,3 km/h (0 Bft)
27/01/2022 18:00 10,1 C 82 % 1025,7 hPa 0,0 l/m 0,0 km/h (0 Bft) N 0,00 h 0,000 mm 0 W/m 7,2 C 10,1 C 0,0 km/h (0 Bft)
27/01/2022 19:00 9,6 C 84 % 1025,4 hPa 0,0 l/m 0,0 km/h (0 Bft) N 0,00 h 0,025 mm 0 W/m 7,0 C 9,6 C 0,0 km/h (0 Bft)
27/01/2022 20:00 8,9 C 85 % 1025,3 hPa 0,0 l/m 0,0 km/h (0 Bft) N 0,00 h 0,000 mm 0 W/m 6,5 C 8,9 C 0,0 km/h (0 Bft)
27/01/2022 21:00 8,0 C 87 % 1025,4 hPa 0,0 l/m 0,0 km/h (0 Bft) N 0,00 h 0,000 mm 0 W/m 6,0 C 8,0 C 0,0 km/h (0 Bft)
27/01/2022 22:00 7,4 C 89 % 1025,6 hPa 0,0 l/m 0,0 km/h (0 Bft) N 0,00 h 0,000 mm 0 W/m 5,6 C 7,4 C 0,0 km/h (0 Bft)
27/01/2022 23:00 7,0 C 90 % 1025,7 hPa 0,0 l/m 0,0 km/h (0 Bft) N 0,00 h 0,000 mm 0 W/m 5,5 C 7,0 C 0,1 km/h (0 Bft)
28/01/2022 00:00 6,7 C 90 % 1025,4 hPa 0,0 l/m 0,0 km/h (0 Bft) S 0,00 h 0,000 mm 0 W/m 5,1 C 6,7 C 0,7 km/h (0 Bft)
28/01/2022 01:00 6,6 C 89 % 1025,1 hPa 0,0 l/m 0,3 km/h (0 Bft) NO 0,00 h 0,000 mm 0 W/m 4,9 C 6,6 C 1,5 km/h (1 Bft)
28/01/2022 02:00 6,3 C 88 % 1024,7 hPa 0,0 l/m 0,1 km/h (0 Bft) NO 0,00 h 0,000 mm 0 W/m 4,4 C 6,3 C 0,8 km/h (0 Bft)
28/01/2022 03:00 5,6 C 87 % 1024,9 hPa 0,0 l/m 0,0 km/h (0 Bft) N 0,00 h 0,000 mm 0 W/m 3,6 C 5,6 C 0,1 km/h (0 Bft)
28/01/2022 04:00 5,0 C 88 % 1024,7 hPa 0,0 l/m 0,0 km/h (0 Bft) NO 0,00 h 0,000 mm 0 W/m 3,1 C 5,0 C 1,0 km/h (0 Bft)
28/01/2022 05:00 5,1 C 87 % 1024,7 hPa 0,0 l/m 0,2 km/h (0 Bft) NO 0,00 h 0,000 mm 0 W/m 3,1 C 5,1 C 1,4 km/h (1 Bft)
28/01/2022 06:00 5,7 C 86 % 1024,8 hPa 0,0 l/m 0,6 km/h (0 Bft) NO 0,00 h 0,000 mm 0 W/m 3,6 C 5,7 C 2,2 km/h (1 Bft)
28/01/2022 07:00 6,5 C 83 % 1025,0 hPa 0,0 l/m 1,6 km/h (1 Bft) NO 0,00 h 0,000 mm 6 W/m 3,8 C 6,5 C 4,8 km/h (1 Bft)
28/01/2022 08:00 6,7 C 81 % 1025,4 hPa 0,0 l/m 1,7 km/h (1 Bft) NO 0,20 h 0,000 mm 43 W/m 3,7 C 6,7 C 4,6 km/h (1 Bft)
28/01/2022 09:00 8,2 C 77 % 1025,3 hPa 0,0 l/m 0,1 km/h (0 Bft) NO 0,98 h 0,025 mm 183 W/m 4,4 C 8,2 C 0,7 km/h (0 Bft)
28/01/2022 10:00 11,1 C 68 % 1025,6 hPa 0,0 l/m 0,0 km/h (0 Bft) N 1,00 h 0,076 mm 318 W/m 5,5 C 11,1 C 0,1 km/h (0 Bft)
28/01/2022 11:00 14,0 C 63 % 1025,7 hPa 0,0 l/m 0,1 km/h (0 Bft) S-SO 1,00 h 0,152 mm 402 W/m 7,1 C 14,0 C 0,6 km/h (0 Bft)
28/01/2022 12:00 14,5 C 61 % 1025,4 hPa 0,0 l/m 0,7 km/h (0 Bft) E 1,00 h 0,203 mm 437 W/m 7,1 C 14,5 C 2,8 km/h (1 Bft)
28/01/2022 13:00 15,4 C 63 % 1025,3 hPa 0,0 l/m 0,6 km/h (0 Bft) E-SE 1,00 h 0,229 mm 420 W/m 8,4 C 15,4 C 2,7 km/h (1 Bft)
28/01/2022 14:00 15,0 C 66 % 1025,2 hPa 0,0 l/m 0,7 km/h (0 Bft) S 1,00 h 0,229 mm 354 W/m 8,8 C 15,0 C 2,7 km/h (1 Bft)
28/01/2022 15:00 15,0 C 66 % 1025,4 hPa 0,0 l/m 0,0 km/h (0 Bft) S-SE 1,00 h 0,178 mm 247 W/m 8,6 C 15,0 C 0,5 km/h (0 Bft)
28/01/2022 16:00 14,0 C 69 % 1025,5 hPa 0,0 l/m 0,0 km/h (0 Bft) N 1,00 h 0,127 mm 119 W/m 8,3 C 14,0 C 0,0 km/h (0 Bft)
28/01/2022 17:00 12,2 C 74 % 1025,8 hPa 0,0 l/m 0,0 km/h (0 Bft) N 0,17 h 0,076 mm 19 W/m 7,6 C 12,2 C 0,0 km/h (0 Bft)
28/01/2022 18:00 9,9 C 81 % 1026,4 hPa 0,0 l/m 0,0 km/h (0 Bft) N 0,00 h 0,000 mm 0 W/m 6,7 C 9,9 C 0,0 km/h (0 Bft)
28/01/2022 19:00 8,5 C 84 % 1026,5 hPa 0,0 l/m 0,0 km/h (0 Bft) N 0,00 h 0,000 mm 0 W/m 6,1 C 8,5 C 0,0 km/h (0 Bft)
28/01/2022 20:00 7,6 C 82 % 1026,9 hPa 0,0 l/m 0,0 km/h (0 Bft) N 0,00 h 0,000 mm 0 W/m 4,8 C 7,6 C 0,0 km/h (0 Bft)
28/01/2022 21:00 6,7 C 77 % 1027,2 hPa 0,0 l/m 0,0 km/h (0 Bft) N 0,00 h 0,000 mm 0 W/m 2,9 C 6,7 C 0,0 km/h (0 Bft)
28/01/2022 22:00 7,0 C 74 % 1027,6 hPa 0,0 l/m 0,0 km/h (0 Bft) N 0,00 h 0,025 mm 0 W/m 2,7 C 7,0 C 0,0 km/h (0 Bft)
28/01/2022 23:00 7,5 C 67 % 1027,8 hPa 0,0 l/m 0,0 km/h (0 Bft) N 0,00 h 0,025 mm 0 W/m 1,7 C 7,5 C 0,0 km/h (0 Bft)
29/01/2022 00:00 7,7 C 57 % 1027,9 hPa 0,0 l/m 0,0 km/h (0 Bft) N-NE 0,00 h 0,025 mm 0 W/m -0,4 C 7,7 C 0,4 km/h (0 Bft)
29/01/2022 01:00 8,3 C 46 % 1027,7 hPa 0,0 l/m 0,1 km/h (0 Bft) N-NE 0,00 h 0,025 mm 0 W/m -2,5 C 8,3 C 0,8 km/h (0 Bft)
29/01/2022 02:00 8,2 C 45 % 1027,9 hPa 0,0 l/m 0,0 km/h (0 Bft) N 0,00 h 0,025 mm 0 W/m -3,1 C 8,2 C 0,2 km/h (0 Bft)
29/01/2022 03:00 7,9 C 42 % 1027,9 hPa 0,0 l/m 0,1 km/h (0 Bft) N-NE 0,00 h 0,025 mm 0 W/m -4,3 C 7,9 C 0,3 km/h (0 Bft)
29/01/2022 04:00 8,1 C 41 % 1027,8 hPa 0,0 l/m 0,2 km/h (0 Bft) N-NE 0,00 h 0,025 mm 0 W/m -4,3 C 8,1 C 1,5 km/h (1 Bft)
29/01/2022 05:00 8,2 C 38 % 1028,1 hPa 0,0 l/m 0,5 km/h (0 Bft) N-NE 0,00 h 0,051 mm 0 W/m -5,1 C 8,2 C 1,4 km/h (1 Bft)
29/01/2022 06:00 8,0 C 36 % 1028,4 hPa 0,0 l/m 0,3 km/h (0 Bft) N-NE 0,00 h 0,051 mm 0 W/m -6,2 C 8,0 C 0,8 km/h (0 Bft)
29/01/2022 07:00 7,7 C 36 % 1028,8 hPa 0,0 l/m 0,2 km/h (0 Bft) N-NE 0,00 h 0,051 mm 8 W/m -6,3 C 7,7 C 1,1 km/h (0 Bft)
29/01/2022 08:00 8,1 C 36 % 1029,6 hPa 0,0 l/m 0,1 km/h (0 Bft) N-NE 0,97 h 0,000 mm 70 W/m -6,2 C 8,1 C 0,4 km/h (0 Bft)
29/01/2022 09:00 11,5 C 37 % 1029,8 hPa 0,0 l/m 0,0 km/h (0 Bft) N 1,00 h 0,051 mm 202 W/m -2,8 C 11,5 C 0,1 km/h (0 Bft)
29/01/2022 10:00 13,8 C 41 % 1029,9 hPa 0,0 l/m 0,5 km/h (0 Bft) NE 1,00 h 0,102 mm 324 W/m 0,6 C 13,8 C 1,5 km/h (1 Bft)
29/01/2022 11:00 14,8 C 49 % 1029,9 hPa 0,0 l/m 1,8 km/h (1 Bft) S 1,00 h 0,178 mm 406 W/m 4,1 C 14,8 C 3,5 km/h (1 Bft)
29/01/2022 12:00 16,2 C 50 % 1029,3 hPa 0,0 l/m 2,6 km/h (1 Bft) SE 1,00 h 0,229 mm 437 W/m 5,8 C 16,2 C 6,2 km/h (2 Bft)
29/01/2022 13:00 16,6 C 50 % 1028,9 hPa 0,0 l/m 1,6 km/h (1 Bft) SE 1,00 h 0,254 mm 423 W/m 6,2 C 16,6 C 3,8 km/h (1 Bft)
29/01/2022 14:00 16,9 C 53 % 1028,0 hPa 0,0 l/m 2,7 km/h (1 Bft) SE 1,00 h 0,254 mm 356 W/m 7,1 C 16,9 C 4,6 km/h (1 Bft)
29/01/2022 15:00 15,2 C 68 % 1027,4 hPa 0,0 l/m 4,0 km/h (1 Bft) S-SE 1,00 h 0,203 mm 247 W/m 9,2 C 15,2 C 7,1 km/h (2 Bft)
29/01/2022 16:00 14,0 C 74 % 1027,1 hPa 0,0 l/m 5,5 km/h (1 Bft) S 1,00 h 0,152 mm 119 W/m 9,5 C 14,0 C 8,7 km/h (2 Bft)
29/01/2022 17:00 11,9 C 80 % 1026,8 hPa 0,0 l/m 1,6 km/h (1 Bft) S 0,10 h 0,076 mm 19 W/m 8,6 C 11,9 C 2,7 km/h (1 Bft)
29/01/2022 18:00 10,1 C 85 % 1026,8 hPa 0,0 l/m 0,1 km/h (0 Bft) S 0,00 h 0,025 mm 0 W/m 7,7 C 10,1 C 0,3 km/h (0 Bft)
29/01/2022 19:00 9,3 C 88 % 1026,4 hPa 0,0 l/m 0,0 km/h (0 Bft) N 0,00 h 0,000 mm 0 W/m 7,4 C 9,3 C 0,0 km/h (0 Bft)
29/01/2022 20:00 8,5 C 89 % 1026,2 hPa 0,0 l/m 0,0 km/h (0 Bft) N 0,00 h 0,000 mm 0 W/m 6,8 C 8,5 C 0,0 km/h (0 Bft)
29/01/2022 21:00 7,5 C 89 % 1025,7 hPa 0,0 l/m 0,0 km/h (0 Bft) N 0,00 h 0,000 mm 0 W/m 5,9 C 7,5 C 0,0 km/h (0 Bft)
29/01/2022 22:00 7,2 C 91 % 1025,4 hPa 0,0 l/m 0,0 km/h (0 Bft) N 0,00 h 0,000 mm 0 W/m 5,8 C 7,2 C 0,2 km/h (0 Bft)
29/01/2022 23:00 6,6 C 88 % 1025,1 hPa 0,0 l/m 0,1 km/h (0 Bft) S 0,00 h 0,000 mm 0 W/m 4,7 C 6,6 C 0,5 km/h (0 Bft)
30/01/2022 00:00 6,3 C 89 % 1025,1 hPa 0,0 l/m 0,0 km/h (0 Bft) N 0,00 h 0,000 mm 0 W/m 4,7 C 6,3 C 0,0 km/h (0 Bft)
30/01/2022 01:00 6,6 C 89 % 1024,8 hPa 0,0 l/m 0,0 km/h (0 Bft) N 0,00 h 0,000 mm 0 W/m 4,9 C 6,6 C 0,0 km/h (0 Bft)
30/01/2022 02:00 6,7 C 86 % 1024,1 hPa 0,0 l/m 0,0 km/h (0 Bft) N 0,00 h 0,000 mm 0 W/m 4,6 C 6,7 C 0,2 km/h (0 Bft)
30/01/2022 03:00 6,3 C 87 % 1023,2 hPa 0,0 l/m 0,0 km/h (0 Bft) S 0,00 h 0,000 mm 0 W/m 4,2 C 6,3 C 0,3 km/h (0 Bft)
30/01/2022 04:00 6,0 C 85 % 1022,7 hPa 0,0 l/m 0,0 km/h (0 Bft) N 0,00 h 0,000 mm 0 W/m 3,6 C 6,0 C 0,0 km/h (0 Bft)
30/01/2022 05:00 5,9 C 80 % 1022,5 hPa 0,0 l/m 0,0 km/h (0 Bft) N 0,00 h 0,000 mm 0 W/m 2,8 C 5,9 C 0,4 km/h (0 Bft)
30/01/2022 06:00 6,2 C 80 % 1021,9 hPa 0,0 l/m 0,2 km/h (0 Bft) S 0,00 h 0,000 mm 0 W/m 3,0 C 6,2 C 0,8 km/h (0 Bft)
30/01/2022 07:00 5,9 C 80 % 1021,5 hPa 0,0 l/m 0,1 km/h (0 Bft) S 0,00 h 0,025 mm 6 W/m 2,7 C 5,9 C 0,7 km/h (0 Bft)
30/01/2022 08:00 6,2 C 81 % 1021,6 hPa 0,0 l/m 0,0 km/h (0 Bft) S 0,98 h 0,000 mm 69 W/m 3,3 C 6,2 C 0,2 km/h (0 Bft)
30/01/2022 09:00 9,0 C 75 % 1021,5 hPa 0,0 l/m 0,0 km/h (0 Bft) N 1,00 h 0,025 mm 199 W/m 4,7 C 9,0 C 0,0 km/h (0 Bft)
30/01/2022 10:00 12,2 C 71 % 1021,3 hPa 0,0 l/m 0,0 km/h (0 Bft) N 0,98 h 0,102 mm 316 W/m 7,0 C 12,2 C 0,0 km/h (0 Bft)
30/01/2022 11:00 14,6 C 69 % 1021,0 hPa 0,0 l/m 0,3 km/h (0 Bft) S-SE 1,00 h 0,152 mm 418 W/m 9,0 C 14,6 C 1,2 km/h (1 Bft)
30/01/2022 12:00 15,0 C 67 % 1020,5 hPa 0,0 l/m 1,9 km/h (1 Bft) S-SE 1,00 h 0,229 mm 457 W/m 8,9 C 15,0 C 4,6 km/h (1 Bft)
30/01/2022 13:00 14,7 C 67 % 1019,8 hPa 0,0 l/m 3,1 km/h (1 Bft) SE 1,00 h 0,254 mm 431 W/m 8,7 C 14,7 C 6,4 km/h (2 Bft)
30/01/2022 14:00 15,0 C 68 % 1019,1 hPa 0,0 l/m 1,4 km/h (1 Bft) SE 0,98 h 0,229 mm 397 W/m 9,0 C 15,0 C 4,6 km/h (1 Bft)
30/01/2022 15:00 13,4 C 73 % 1018,9 hPa 0,0 l/m 1,0 km/h (0 Bft) SE 0,00 h 0,203 mm 120 W/m 8,6 C 13,4 C 3,1 km/h (1 Bft)
30/01/2022 16:00 12,4 C 77 % 1018,8 hPa 0,0 l/m 0,2 km/h (0 Bft) SE 0,52 h 0,076 mm 106 W/m 8,6 C 12,4 C 0,5 km/h (0 Bft)
30/01/2022 17:00 11,8 C 79 % 1018,8 hPa 0,0 l/m 0,5 km/h (0 Bft) SE 0,50 h 0,051 mm 32 W/m 8,2 C 11,8 C 1,0 km/h (0 Bft)
30/01/2022 18:00 10,4 C 82 % 1018,9 hPa 0,0 l/m 0,1 km/h (0 Bft) SE 0,00 h 0,025 mm 0 W/m 7,5 C 10,4 C 0,3 km/h (0 Bft)
30/01/2022 19:00 9,6 C 85 % 1019,2 hPa 0,0 l/m 0,1 km/h (0 Bft) SE 0,00 h 0,000 mm 0 W/m 7,2 C 9,6 C 0,2 km/h (0 Bft)
30/01/2022 20:00 9,3 C 86 % 1019,4 hPa 0,0 l/m 0,1 km/h (0 Bft) SE 0,00 h 0,000 mm 0 W/m 7,1 C 9,3 C 1,4 km/h (1 Bft)
30/01/2022 21:00 9,3 C 86 % 1019,3 hPa 0,0 l/m 1,5 km/h (1 Bft) O 0,00 h 0,000 mm 0 W/m 7,1 C 9,3 C 3,9 km/h (1 Bft)
30/01/2022 22:00 9,3 C 86 % 1019,2 hPa 0,0 l/m 2,0 km/h (1 Bft) O 0,00 h 0,000 mm 0 W/m 7,2 C 9,3 C 4,2 km/h (1 Bft)
30/01/2022 23:00 9,3 C 86 % 1018,9 hPa 0,0 l/m 1,4 km/h (1 Bft) O 0,00 h 0,000 mm 0 W/m 7,1 C 9,3 C 3,6 km/h (1 Bft)
Min-Date _ 26/01/22 29/01/22 30/01/22 - 24/01/22 - - - - 29/01/22 26/01/22 24/01/22
_ Min-Heure 05:20 09:24 23:45 - 00:00 - - - - 08:19 05:20 00:00
Minimum _ 3,9 C 32 % 1018,7 hPa - 0,0 km/h (0 Bft) - - - - -7,2 C 3,9 C 0,0 km/h (0 Bft)
Max-Date _ 29/01/22 29/01/22 25/01/22 24/01/22 25/01/22 - 24/01/22 25/01/22 25/01/22 29/01/22 29/01/22 25/01/22
_ Max-Heure 14:19 21:58 09:15 00:00 12:47 - 08:07 13:00 12:09 15:51 14:19 12:48
Maximum _ 17,8 C 91 % 1032,4 hPa 0,0 l/m 11,3 km/h
S-SE (2 Bft)
- 0,02 h 0,279 mm 557 W/m 9,8 C 17,8 C 17,7 km/h
S-SE (3 Bft)
Moyenne _ 9,2 C 76 % 1026,9 hPa #0,0 l/m 0,5 km/h (0 Bft) SE #53:23 h #9,543 mm 224 W/m 4,9 C 9,2 C 1,5 km/h (1 Bft)
Roquefort les pins